CA-0137 weather

CLOSED Mobil Sierra Airport
Fort Nelson, British Columbia, Canada

Public forecast

Using degrees Celsius for public forecast. Weather courtesy of forecast.io.

Closest aviation weather report (METAR) to Mobil Sierra Airport

Closest report is Fort Nelson Airport, 37.2 nm (68.9 km) W. Retrieved 2019/10/13 22:00 UTC (17 minutes ago):

CYYE 132200Z 31007KT 290V010 15SM -SN BKN022 OVC036 02/M03 A3005 RMK SC6SC2 SLP196

Closest aviation forecast (TAF) to Mobil Sierra Airport

Closest forecast is Fort Nelson Airport, 37.2 nm (68.9 km) W. Retrieved 2019/10/13 19:54 UTC (2 hours ago):

TAF CYYE 131851Z 1319/1407 35005KT P6SM SCT015 BKN040 TEMPO 1319/1322 BKN015 BKN050 RMK NXT FCST BY 140100Z